Time;durP1;ratioP1;P1;durP2;ratioP2;P2;SDS_P1;SDS_P2;PMS_P1;PMS_P2;Temp;Humidity;BMP_temperature;BMP_pressure;BME280_temperature;BME280_humidity;BME280_pressure;Samples;Min_cycle;Max_cycle;Signal;HPM_P1;HPM_P2
2023/07/14 00:00:31;;;;;;;8.33;6.47;;;24.20;99.90;;;;;;5087601;28;20400;-81
2023/07/14 00:02:59;;;;;;;6.40;5.60;;;24.30;99.90;;;;;;5086452;28;20451;-81
2023/07/14 00:05:29;;;;;;;6.10;5.50;;;24.30;99.90;;;;;;5087317;28;20761;-75
2023/07/14 00:07:56;;;;;;;8.30;6.47;;;24.40;99.90;;;;;;5085407;28;20504;-75
2023/07/14 00:10:34;;;;;;;9.63;7.10;;;24.40;99.90;;;;;;5086794;28;20443;-81
2023/07/14 00:13:03;;;;;;;11.20;6.30;;;24.40;99.90;;;;;;5085949;28;20540;-81
2023/07/14 00:15:31;;;;;;;7.73;6.37;;;24.40;99.90;;;;;;5086804;28;20504;-81
2023/07/14 00:18:09;;;;;;;7.90;7.10;;;24.40;99.90;;;;;;5086378;28;20787;-74
2023/07/14 00:20:35;;;;;;;7.40;6.70;;;24.40;99.90;;;;;;5086675;28;20399;-81
2023/07/14 00:23:00;;;;;;;7.00;6.40;;;24.30;99.90;;;;;;5084566;28;20468;-81
2023/07/14 00:25:27;;;;;;;7.63;6.17;;;24.40;99.90;;;;;;5085747;28;20682;-77
2023/07/14 00:27:55;;;;;;;6.80;6.03;;;24.40;99.90;;;;;;5086518;28;20206;-75
2023/07/14 00:30:25;;;;;;;7.70;6.13;;;24.40;99.90;;;;;;5085129;28;20420;-75
2023/07/14 00:32:52;;;;;;;6.73;5.93;;;24.40;99.90;;;;;;5086226;28;20475;-81
2023/07/14 00:35:22;;;;;;;8.00;6.67;;;24.40;99.90;;;;;;5086267;28;20437;-74
2023/07/14 00:37:49;;;;;;;7.10;5.77;;;24.40;99.90;;;;;;5086410;28;20448;-79
2023/07/14 00:40:30;;;;;;;7.60;6.90;;;24.30;99.90;;;;;;5084238;28;20399;-74
2023/07/14 00:42:57;;;;;;;7.10;6.40;;;24.30;99.90;;;;;;5085375;28;20999;-75
2023/07/14 00:45:26;;;;;;;6.30;5.70;;;24.30;99.90;;;;;;5086340;28;20408;-75
2023/07/14 00:47:57;;;;;;;6.77;6.17;;;24.30;99.90;;;;;;5084369;28;20507;-81
2023/07/14 00:50:29;;;;;;;7.57;6.80;;;24.30;99.90;;;;;;5086320;28;20424;-75
2023/07/14 00:52:58;;;;;;;7.23;6.63;;;24.30;99.90;;;;;;5083707;28;20484;-75
2023/07/14 00:55:24;;;;;;;6.67;6.00;;;24.20;99.90;;;;;;5085147;28;20422;-81
2023/07/14 00:57:53;;;;;;;7.17;6.47;;;24.20;99.90;;;;;;5085744;28;20480;-81
2023/07/14 01:00:30;;;;;;;7.40;6.07;;;24.20;99.90;;;;;;5085828;28;20407;-81
2023/07/14 01:03:02;;;;;;;7.20;6.00;;;24.20;99.90;;;;;;5085526;28;20810;-75
2023/07/14 01:05:29;;;;;;;7.10;6.43;;;24.10;99.90;;;;;;5085979;28;20902;-81
2023/07/14 01:07:55;;;;;;;8.20;7.47;;;24.10;99.90;;;;;;5085866;28;20811;-81
2023/07/14 01:10:24;;;;;;;10.53;7.90;;;24.10;99.90;;;;;;5085766;28;20875;-81
2023/07/14 01:12:57;;;;;;;7.60;6.00;;;24.00;99.90;;;;;;5084118;28;20495;-80
2023/07/14 01:15:23;;;;;;;7.30;6.70;;;24.00;99.90;;;;;;5086452;28;20765;-75
2023/07/14 01:17:50;;;;;;;7.10;6.50;;;23.90;99.90;;;;;;5084435;28;20451;-75
2023/07/14 01:20:17;;;;;;;7.33;6.43;;;23.80;99.90;;;;;;5084331;28;20414;-75
2023/07/14 01:22:52;;;;;;;7.90;7.10;;;23.70;99.90;;;;;;5085753;28;20532;-74
2023/07/14 01:25:35;;;;;;;6.97;6.37;;;23.70;99.90;;;;;;5084130;28;20420;-75
2023/07/14 01:28:09;;;;;;;7.83;7.03;;;23.60;99.90;;;;;;5084160;28;20441;-75
2023/07/14 01:30:36;;;;;;;8.57;7.67;;;23.60;99.90;;;;;;5085975;28;20394;-75
2023/07/14 01:33:02;;;;;;;8.73;7.27;;;23.60;99.90;;;;;;5085144;28;20541;-75
2023/07/14 01:35:33;;;;;;;8.17;6.53;;;23.50;99.90;;;;;;5085830;28;20493;-75
2023/07/14 01:37:58;;;;;;;8.00;6.30;;;23.50;99.90;;;;;;5085307;28;20206;-80
2023/07/14 01:40:26;;;;;;;7.90;7.10;;;23.50;99.90;;;;;;5085404;28;20422;-75
2023/07/14 01:42:58;;;;;;;8.30;7.30;;;23.50;99.90;;;;;;5085564;28;20208;-81
2023/07/14 01:45:30;;;;;;;7.87;7.17;;;23.50;99.90;;;;;;5085617;28;20384;-81
2023/07/14 01:47:58;;;;;;;8.73;7.73;;;23.50;99.90;;;;;;5083752;28;20823;-81
2023/07/14 01:50:30;;;;;;;9.10;7.70;;;23.50;99.90;;;;;;5084288;28;20422;-75
2023/07/14 01:53:02;;;;;;;8.70;7.80;;;23.50;99.90;;;;;;5084508;28;20558;-81
2023/07/14 01:55:34;;;;;;;8.67;7.77;;;23.50;99.90;;;;;;5087352;28;20490;-81
2023/07/14 01:58:06;;;;;;;10.83;7.80;;;23.50;99.90;;;;;;5088937;28;20440;-81
2023/07/14 02:00:32;;;;;;;10.67;7.83;;;23.40;99.90;;;;;;5089768;28;20394;-75
2023/07/14 02:02:59;;;;;;;8.60;7.80;;;23.40;99.90;;;;;;5088956;28;20446;-81
2023/07/14 02:05:33;;;;;;;13.27;8.23;;;23.40;99.90;;;;;;5089063;28;20744;-75
2023/07/14 02:08:03;;;;;;;8.37;7.60;;;23.40;99.90;;;;;;5088883;28;20440;-75
2023/07/14 02:10:30;;;;;;;8.73;7.90;;;23.40;99.90;;;;;;5087859;28;20780;-74
2023/07/14 02:12:56;;;;;;;11.97;7.63;;;23.40;99.90;;;;;;5087155;28;20577;-74
2023/07/14 02:15:29;;;;;;;12.60;8.10;;;23.40;99.90;;;;;;5089098;28;20501;-75
2023/07/14 02:17:55;;;;;;;9.50;8.53;;;23.40;99.90;;;;;;5089079;28;20783;-75
2023/07/14 02:20:32;;;;;;;7.47;6.77;;;23.30;99.90;;;;;;5088853;28;20437;-80
2023/07/14 02:23:01;;;;;;;8.47;7.10;;;23.30;99.90;;;;;;5088226;28;20444;-81
2023/07/14 02:25:33;;;;;;;10.27;7.30;;;23.30;99.90;;;;;;5089050;28;20827;-75
2023/07/14 02:27:59;;;;;;;8.57;7.67;;;23.30;99.90;;;;;;5087015;28;20952;-80
2023/07/14 02:30:26;;;;;;;7.90;7.20;;;23.30;99.90;;;;;;5086353;28;20408;-75
2023/07/14 02:33:15;;;;;;;8.80;7.87;;;23.30;99.90;;;;;;5088499;28;20241;-75
2023/07/14 02:35:48;;;;;;;7.83;7.03;;;23.30;99.90;;;;;;5088924;28;20397;-81
2023/07/14 02:38:16;;;;;;;12.17;7.97;;;23.30;99.90;;;;;;5086700;28;20459;-80
2023/07/14 02:40:56;;;;;;;7.60;6.97;;;23.20;99.90;;;;;;5086831;28;20934;-75
2023/07/14 02:43:23;;;;;;;8.37;7.50;;;23.20;99.90;;;;;;5088629;28;20449;-81
2023/07/14 02:46:09;;;;;;;9.53;8.57;;;23.20;99.90;;;;;;5088638;28;20893;-81
2023/07/14 02:48:39;;;;;;;9.73;8.10;;;23.20;99.90;;;;;;5086018;28;20519;-81
2023/07/14 02:51:04;;;;;;;8.27;7.50;;;23.10;99.90;;;;;;5088272;28;20440;-80
2023/07/14 02:53:30;;;;;;;7.60;6.90;;;23.10;99.90;;;;;;5087433;28;20489;-75
2023/07/14 02:55:56;;;;;;;8.37;7.57;;;23.20;99.90;;;;;;5088271;28;20180;-75
2023/07/14 02:58:22;;;;;;;8.13;7.33;;;23.20;99.90;;;;;;5087674;28;20312;-81
2023/07/14 03:00:48;;;;;;;13.40;8.30;;;23.20;99.90;;;;;;5088138;28;20222;-75
2023/07/14 03:03:14;;;;;;;8.67;7.00;;;23.30;99.90;;;;;;5087825;28;20196;-75
2023/07/14 03:05:39;;;;;;;8.47;7.37;;;23.30;99.90;;;;;;5086396;28;20568;-74
2023/07/14 03:08:15;;;;;;;7.73;7.00;;;23.40;99.90;;;;;;5087697;28;20802;-81
2023/07/14 03:10:43;;;;;;;9.07;7.67;;;23.40;99.90;;;;;;5086464;28;20214;-81
2023/07/14 03:13:09;;;;;;;7.77;6.97;;;23.40;99.90;;;;;;5087003;28;20490;-75
2023/07/14 03:15:34;;;;;;;7.77;7.00;;;23.40;99.90;;;;;;5088229;28;20397;-75
2023/07/14 03:18:00;;;;;;;9.57;7.27;;;23.40;99.90;;;;;;5087473;28;20241;-75
2023/07/14 03:20:26;;;;;;;9.07;8.23;;;23.40;99.90;;;;;;5087715;28;20207;-80
2023/07/14 03:22:52;;;;;;;9.50;8.57;;;23.50;99.90;;;;;;5086134;28;20213;-81
2023/07/14 03:25:18;;;;;;;8.40;7.60;;;23.40;99.90;;;;;;5087592;28;20410;-80
2023/07/14 03:27:45;;;;;;;8.77;7.27;;;23.40;99.90;;;;;;5086057;28;20564;-80
2023/07/14 03:30:12;;;;;;;12.30;7.97;;;23.40;99.90;;;;;;5087237;28;20562;-75
2023/07/14 03:32:38;;;;;;;9.30;7.27;;;23.40;99.90;;;;;;5087246;28;20469;-80
2023/07/14 03:35:04;;;;;;;8.67;7.30;;;23.50;99.90;;;;;;5086888;28;20405;-75
2023/07/14 03:37:30;;;;;;;7.90;7.20;;;23.50;99.90;;;;;;5085917;28;20296;-75
2023/07/14 03:39:56;;;;;;;7.97;7.23;;;23.50;99.90;;;;;;5086311;28;20562;-79
2023/07/14 03:42:22;;;;;;;8.63;7.70;;;23.60;99.90;;;;;;5085724;28;20227;-80
2023/07/14 03:44:47;;;;;;;8.70;7.83;;;23.60;99.90;;;;;;5085901;28;20843;-77
2023/07/14 03:47:13;;;;;;;8.60;7.50;;;23.70;99.90;;;;;;5085557;28;20240;-75
2023/07/14 03:49:39;;;;;;;8.07;7.37;;;23.70;99.90;;;;;;5085385;28;20175;-75
2023/07/14 03:52:05;;;;;;;9.13;7.40;;;23.80;99.90;;;;;;5086890;28;20208;-80
2023/07/14 03:54:31;;;;;;;11.47;7.47;;;23.80;99.90;;;;;;5086440;28;20708;-79
2023/07/14 03:56:58;;;;;;;15.70;9.00;;;23.80;99.90;;;;;;5085529;28;20482;-74
2023/07/14 03:59:25;;;;;;;9.90;8.87;;;23.90;99.90;;;;;;5086822;28;20700;-75
2023/07/14 04:01:51;;;;;;;8.80;7.50;;;23.90;99.90;;;;;;5086528;28;20429;-75
2023/07/14 04:04:19;;;;;;;7.53;6.70;;;23.90;99.90;;;;;;5100891;28;20755;-76
2023/07/14 04:06:44;;;;;;;8.27;7.33;;;24.00;99.90;;;;;;5106246;28;20880;-75
2023/07/14 04:09:11;;;;;;;9.67;7.93;;;24.00;99.90;;;;;;5106878;28;20533;-75
2023/07/14 04:11:37;;;;;;;11.10;7.70;;;24.00;99.90;;;;;;5105547;28;20256;-80
2023/07/14 04:14:05;;;;;;;8.27;6.53;;;24.00;99.90;;;;;;5106340;28;20849;-75
2023/07/14 04:16:31;;;;;;;7.80;7.00;;;24.00;99.90;;;;;;5106809;28;20436;-81
2023/07/14 04:18:57;;;;;;;8.40;7.53;;;24.10;99.90;;;;;;5106131;28;20853;-74
2023/07/14 04:21:24;;;;;;;8.20;7.50;;;24.10;99.90;;;;;;5105368;28;20984;-75
2023/07/14 04:23:55;;;;;;;12.00;7.80;;;24.10;99.90;;;;;;5105230;28;20520;-80
2023/07/14 04:26:22;;;;;;;7.40;6.70;;;24.10;99.90;;;;;;5105080;28;20455;-75
2023/07/14 04:28:48;;;;;;;9.70;7.60;;;24.10;99.90;;;;;;5106684;28;20945;-80
2023/07/14 04:31:14;;;;;;;8.20;6.73;;;24.10;99.90;;;;;;5105372;28;20724;-80
2023/07/14 04:33:45;;;;;;;10.93;7.30;;;24.20;99.90;;;;;;5105429;28;20568;-75
2023/07/14 04:36:12;;;;;;;7.77;6.80;;;24.20;99.90;;;;;;5105131;28;20405;-74
2023/07/14 04:38:41;;;;;;;9.17;7.77;;;24.20;99.90;;;;;;5105229;28;20883;-80
2023/07/14 04:41:07;;;;;;;9.97;8.50;;;24.20;99.90;;;;;;5088630;28;20403;-74
2023/07/14 04:43:33;;;;;;;19.60;15.40;;;24.20;99.90;;;;;;5106290;28;20535;-80
2023/07/14 04:45:59;;;;;;;9.87;8.93;;;24.20;99.90;;;;;;5085926;28;20200;-80
2023/07/14 04:48:25;;;;;;;8.10;7.30;;;24.20;99.90;;;;;;5085611;28;20985;-75
2023/07/14 04:50:51;;;;;;;8.60;7.77;;;24.30;99.90;;;;;;5085803;28;20216;-81
2023/07/14 04:53:17;;;;;;;12.20;7.67;;;24.20;99.90;;;;;;5088622;28;20220;-75
2023/07/14 04:55:45;;;;;;;11.17;7.60;;;24.30;99.90;;;;;;5105830;28;20411;-80
2023/07/14 04:58:13;;;;;;;9.43;7.40;;;24.30;99.90;;;;;;5105334;28;20438;-75
2023/07/14 05:00:41;;;;;;;8.33;7.50;;;24.30;99.90;;;;;;5102309;28;20523;-75
2023/07/14 05:03:07;;;;;;;9.53;7.20;;;24.30;99.90;;;;;;5097691;28;20487;-81
2023/07/14 05:05:33;;;;;;;8.20;7.30;;;24.30;99.90;;;;;;5088381;28;20520;-75
2023/07/14 05:08:00;;;;;;;10.33;7.53;;;24.30;99.90;;;;;;5104271;28;20445;-79
2023/07/14 05:10:28;;;;;;;8.40;7.60;;;24.30;99.90;;;;;;5103596;28;20177;-80
2023/07/14 05:12:56;;;;;;;9.77;8.00;;;24.30;99.90;;;;;;5104523;28;20833;-81
2023/07/14 05:15:24;;;;;;;8.70;6.87;;;24.40;99.90;;;;;;5105622;28;20430;-74
2023/07/14 05:17:50;;;;;;;8.83;8.00;;;24.40;99.90;;;;;;5104325;28;20845;-75
2023/07/14 05:20:18;;;;;;;9.10;7.90;;;24.40;99.90;;;;;;5104109;28;20417;-76
2023/07/14 05:22:46;;;;;;;9.40;8.10;;;24.50;99.90;;;;;;5098189;28;20456;-75
2023/07/14 05:25:13;;;;;;;8.20;7.10;;;24.60;99.90;;;;;;5103742;28;20422;-80
2023/07/14 05:27:40;;;;;;;8.47;7.63;;;24.50;99.90;;;;;;5102378;28;20546;-81
2023/07/14 05:30:09;;;;;;;10.63;7.63;;;24.60;99.90;;;;;;5105015;28;20428;-80
2023/07/14 05:32:35;;;;;;;7.23;6.53;;;24.60;99.90;;;;;;5108268;28;20436;-75
2023/07/14 05:35:00;;;;;;;8.60;7.90;;;24.70;99.90;;;;;;5105781;28;20413;-75
2023/07/14 05:37:26;;;;;;;6.73;6.13;;;24.70;99.90;;;;;;5106909;28;20447;-75
2023/07/14 05:39:52;;;;;;;10.20;8.03;;;24.80;99.90;;;;;;5106940;28;20220;-81
2023/07/14 05:42:17;;;;;;;9.10;8.20;;;24.90;99.90;;;;;;5107873;28;20199;-75
2023/07/14 05:44:43;;;;;;;13.03;7.70;;;25.00;99.90;;;;;;5105139;28;20178;-77
2023/07/14 05:47:09;;;;;;;11.60;7.93;;;25.00;99.90;;;;;;5104812;28;20258;-75
2023/07/14 05:49:35;;;;;;;9.10;8.20;;;25.00;99.90;;;;;;5092919;28;20849;-79
2023/07/14 05:52:01;;;;;;;9.73;8.70;;;25.00;99.90;;;;;;5099764;28;20790;-75
2023/07/14 05:54:27;;;;;;;9.90;8.90;;;25.00;99.90;;;;;;5085091;28;20307;-81
2023/07/14 05:56:53;;;;;;;9.13;8.20;;;25.00;99.90;;;;;;5083886;28;20466;-75
2023/07/14 05:59:19;;;;;;;8.60;7.80;;;25.00;99.90;;;;;;5089764;28;20464;-74
2023/07/14 06:01:48;;;;;;;12.47;8.40;;;25.10;99.90;;;;;;5087829;28;20443;-75
2023/07/14 06:04:15;;;;;;;7.83;7.03;;;25.10;99.90;;;;;;5093435;28;20518;-81
2023/07/14 06:06:42;;;;;;;8.77;7.40;;;25.20;99.90;;;;;;5095257;28;20475;-81
2023/07/14 06:09:09;;;;;;;9.03;8.10;;;25.20;99.90;;;;;;5095546;28;20905;-75
2023/07/14 06:11:35;;;;;;;8.50;7.60;;;25.20;99.90;;;;;;5094881;28;20485;-81
2023/07/14 06:14:01;;;;;;;10.73;8.30;;;25.30;99.90;;;;;;5095282;28;20917;-81
2023/07/14 06:16:28;;;;;;;12.43;7.90;;;25.40;99.90;;;;;;5101033;28;20434;-80
2023/07/14 06:18:54;;;;;;;10.17;8.40;;;25.40;99.90;;;;;;5092406;28;20456;-75
2023/07/14 06:21:20;;;;;;;9.87;8.57;;;25.40;99.90;;;;;;5099697;28;20544;-81
2023/07/14 06:23:45;;;;;;;9.43;8.60;;;25.40;99.90;;;;;;5093321;28;21143;-80
2023/07/14 06:26:12;;;;;;;10.13;9.13;;;25.50;99.90;;;;;;5101121;28;20648;-75
2023/07/14 06:28:38;;;;;;;297.23;165.70;;;25.50;99.90;;;;;;5090758;28;20837;-80
2023/07/14 06:31:05;;;;;;;12.60;10.57;;;25.60;99.90;;;;;;5087643;28;20851;-75
2023/07/14 06:33:33;;;;;;;9.40;8.20;;;25.50;99.90;;;;;;5091082;28;20482;-81
2023/07/14 06:36:00;;;;;;;10.07;9.17;;;25.60;99.90;;;;;;5089513;28;20513;-81
2023/07/14 06:38:28;;;;;;;9.33;8.07;;;25.60;99.90;;;;;;5093016;28;20993;-80
2023/07/14 06:41:00;;;;;;;9.20;7.90;;;25.60;99.90;;;;;;5089817;28;20445;-75
2023/07/14 06:43:27;;;;;;;8.37;7.67;;;25.60;99.90;;;;;;5087824;28;20468;-75
2023/07/14 06:45:52;;;;;;;7.83;7.07;;;25.70;99.90;;;;;;5088534;28;20438;-81
2023/07/14 06:48:18;;;;;;;8.70;7.90;;;25.70;99.90;;;;;;5091814;28;20443;-81
2023/07/14 06:50:45;;;;;;;7.60;6.80;;;25.80;99.90;;;;;;5091707;28;20210;-80
2023/07/14 06:53:11;;;;;;;8.20;7.00;;;25.80;99.90;;;;;;5103004;28;20222;-80
2023/07/14 06:55:38;;;;;;;6.90;6.20;;;25.90;99.90;;;;;;5097020;28;20427;-75
2023/07/14 06:58:04;;;;;;;5.80;5.37;;;25.90;99.90;;;;;;5088096;28;20863;-81
2023/07/14 07:00:31;;;;;;;6.67;5.97;;;26.00;99.90;;;;;;5095297;28;20439;-81
2023/07/14 07:02:57;;;;;;;6.33;5.80;;;26.00;99.90;;;;;;5095360;28;20504;-81
2023/07/14 07:05:23;;;;;;;6.73;6.13;;;26.10;99.90;;;;;;5091806;27;20497;-81
2023/07/14 07:07:50;;;;;;;6.10;5.60;;;26.20;99.90;;;;;;5087579;28;20470;-81
2023/07/14 07:10:16;;;;;;;8.10;5.87;;;26.20;99.90;;;;;;5088390;28;20610;-81
2023/07/14 07:12:42;;;;;;;86.60;59.93;;;26.30;99.90;;;;;;5088802;28;20480;-74
2023/07/14 07:15:08;;;;;;;20.23;16.50;;;26.30;99.90;;;;;;5089847;28;20439;-76
2023/07/14 07:17:34;;;;;;;8.47;7.33;;;26.40;99.90;;;;;;5094855;28;20487;-81
2023/07/14 07:20:00;;;;;;;8.30;5.80;;;26.40;99.90;;;;;;5089776;28;20476;-80
2023/07/14 07:22:26;;;;;;;9.30;6.67;;;26.50;99.90;;;;;;5096185;28;20699;-81
2023/07/14 07:24:52;;;;;;;9.10;5.77;;;26.50;99.90;;;;;;5099605;28;20173;-81
2023/07/14 07:27:17;;;;;;;6.77;6.03;;;26.60;99.90;;;;;;5096260;28;20510;-75
2023/07/14 07:29:43;;;;;;;6.80;6.20;;;26.60;99.90;;;;;;5090541;28;20366;-75
2023/07/14 07:32:10;;;;;;;7.67;6.00;;;26.60;99.90;;;;;;5091615;28;20454;-77
2023/07/14 07:34:36;;;;;;;6.13;5.23;;;26.60;99.90;;;;;;5096570;28;20343;-81
2023/07/14 07:37:02;;;;;;;5.80;5.10;;;26.70;99.90;;;;;;5088257;28;21060;-75
2023/07/14 07:39:28;;;;;;;5.33;4.87;;;26.80;99.90;;;;;;5104778;28;20414;-75
2023/07/14 07:41:54;;;;;;;4.73;4.30;;;26.80;99.90;;;;;;5101516;28;20456;-74
2023/07/14 07:44:20;;;;;;;6.40;4.77;;;26.90;99.90;;;;;;5094701;28;20455;-75
2023/07/14 07:46:46;;;;;;;4.30;3.90;;;26.90;99.90;;;;;;5093810;28;20464;-75
2023/07/14 07:49:12;;;;;;;4.60;4.20;;;27.10;99.90;;;;;;5093493;28;20256;-81
2023/07/14 07:51:38;;;;;;;4.10;3.80;;;27.10;99.90;;;;;;5091753;28;20659;-81
2023/07/14 07:54:04;;;;;;;6.20;3.60;;;27.10;99.90;;;;;;5091674;28;20212;-75
2023/07/14 07:56:29;;;;;;;3.67;3.23;;;27.20;99.90;;;;;;5096667;28;20335;-75
2023/07/14 07:58:55;;;;;;;3.87;3.50;;;27.20;99.90;;;;;;5095048;28;20708;-78
2023/07/14 08:01:24;;;;;;;5.40;3.47;;;27.30;99.90;;;;;;5094976;28;20176;-77
2023/07/14 08:03:51;;;;;;;4.00;3.70;;;27.40;99.90;;;;;;5087259;28;20654;-81
2023/07/14 08:06:18;;;;;;;3.93;3.53;;;27.50;99.90;;;;;;5091585;28;20450;-81
2023/07/14 08:08:44;;;;;;;4.73;3.30;;;27.60;99.90;;;;;;5094046;28;20498;-76
2023/07/14 08:11:11;;;;;;;4.47;4.07;;;27.60;99.90;;;;;;5093310;28;20840;-75
2023/07/14 08:13:37;;;;;;;3.80;3.27;;;27.60;99.90;;;;;;5089072;28;20513;-82
2023/07/14 08:16:03;;;;;;;6.33;3.60;;;27.70;99.90;;;;;;5089690;28;20421;-81
2023/07/14 08:18:30;;;;;;;5.20;4.10;;;27.80;99.90;;;;;;5093247;28;20731;-75
2023/07/14 08:20:56;;;;;;;4.80;4.40;;;27.80;99.90;;;;;;5095973;28;21106;-81
2023/07/14 08:23:23;;;;;;;4.40;4.03;;;27.90;99.90;;;;;;5091272;28;20913;-82
2023/07/14 08:25:57;;;;;;;4.53;4.13;;;28.00;99.90;;;;;;5094889;28;20435;-76
2023/07/14 08:28:23;;;;;;;4.33;4.03;;;28.10;99.90;;;;;;5104368;27;20540;-76
2023/07/14 08:30:51;;;;;;;17.97;15.50;;;28.20;99.90;;;;;;5096216;28;20834;-75
2023/07/14 08:33:17;;;;;;;18.70;15.83;;;28.30;99.90;;;;;;5086081;28;20482;-74
2023/07/14 08:35:43;;;;;;;3.97;3.60;;;28.30;99.90;;;;;;5087562;28;20559;-75
2023/07/14 08:38:09;;;;;;;3.70;3.40;;;28.30;99.90;;;;;;5081565;28;20792;-75
2023/07/14 08:40:44;;;;;;;4.03;3.73;;;28.40;99.90;;;;;;5083224;28;20292;-75
2023/07/14 08:43:20;;;;;;;5.27;4.77;;;28.40;99.90;;;;;;5088115;28;20459;-75
2023/07/14 08:46:03;;;;;;;6.30;3.70;;;28.40;99.90;;;;;;5090625;28;20609;-81
2023/07/14 08:48:45;;;;;;;4.47;4.07;;;28.50;99.90;;;;;;5081916;28;20468;-75
2023/07/14 08:51:23;;;;;;;5.20;4.70;;;28.60;99.90;;;;;;5085548;28;20599;-75
2023/07/14 08:53:55;;;;;;;5.10;4.70;;;28.60;99.90;;;;;;5089031;28;21088;-75
2023/07/14 08:56:22;;;;;;;6.10;4.90;;;28.70;99.90;;;;;;5101301;28;20433;-75
2023/07/14 08:58:50;;;;;;;5.37;4.90;;;28.80;99.90;;;;;;5087500;28;20489;-81
2023/07/14 09:01:37;;;;;;;22.70;6.10;;;28.80;99.90;;;;;;5093297;28;20441;-75
2023/07/14 09:04:14;;;;;;;5.73;5.30;;;28.90;99.90;;;;;;5097991;28;20423;-75
2023/07/14 09:06:40;;;;;;;4.20;3.90;;;28.90;99.90;;;;;;5087770;28;20452;-81
2023/07/14 09:09:16;;;;;;;5.40;5.00;;;28.90;99.90;;;;;;5093226;28;20900;-75
2023/07/14 09:11:56;;;;;;;5.57;5.03;;;29.00;99.90;;;;;;5102688;27;20950;-81
2023/07/14 09:14:48;;;;;;;43.00;35.57;;;29.00;99.90;;;;;;5097453;28;20496;-81
2023/07/14 09:17:22;;;;;;;8.27;5.03;;;29.10;99.90;;;;;;5087502;28;20477;-80
2023/07/14 09:20:22;;;;;;;5.43;4.90;;;29.10;99.90;;;;;;5083277;28;20831;-81
2023/07/14 09:23:02;;;;;;;5.67;5.27;;;29.10;99.90;;;;;;5086759;28;20888;-75
2023/07/14 09:25:49;;;;;;;5.40;4.90;;;29.20;99.90;;;;;;5092176;28;20772;-75
2023/07/14 09:28:20;;;;;;;4.90;4.50;;;29.20;99.90;;;;;;5110167;28;20467;-81
2023/07/14 09:30:49;;;;;;;5.57;5.10;;;29.40;99.90;;;;;;5095055;28;20513;-81
2023/07/14 09:33:18;;;;;;;4.97;4.47;;;29.40;99.90;;;;;;5095023;28;21036;-81
2023/07/14 09:35:45;;;;;;;4.00;3.70;;;29.50;99.90;;;;;;5091720;28;20938;-81
2023/07/14 09:38:25;;;;;;;5.60;4.57;;;29.50;99.90;;;;;;5095393;28;20456;-75
2023/07/14 09:40:58;;;;;;;5.70;5.20;;;29.60;99.90;;;;;;5086306;28;20446;-75
2023/07/14 09:43:24;;;;;;;4.10;3.80;;;29.60;99.90;;;;;;5083480;28;20726;-81
2023/07/14 09:45:53;;;;;;;4.87;4.53;;;29.70;99.90;;;;;;5094872;28;21018;-75
2023/07/14 09:48:33;;;;;;;4.50;4.10;;;29.80;99.90;;;;;;5095087;28;20275;-80
2023/07/14 09:51:14;;;;;;;4.30;4.00;;;29.80;99.90;;;;;;5083233;28;20442;-81
2023/07/14 09:54:05;;;;;;;4.40;4.10;;;29.90;99.90;;;;;;5094994;28;20488;-75
2023/07/14 09:56:44;;;;;;;4.73;4.07;;;30.00;99.90;;;;;;5094025;28;20426;-75
2023/07/14 09:59:21;;;;;;;4.20;3.80;;;30.10;99.90;;;;;;5086742;28;20462;-81
2023/07/14 10:01:56;;;;;;;4.13;3.80;;;30.10;99.90;;;;;;5092014;28;20643;-83
2023/07/14 10:04:28;;;;;;;4.00;3.70;;;30.20;99.90;;;;;;5096889;28;20434;-79
2023/07/14 10:06:54;;;;;;;3.70;3.40;;;30.20;99.90;;;;;;5091461;28;20463;-75
2023/07/14 10:09:22;;;;;;;3.43;3.23;;;30.30;99.90;;;;;;5091446;28;20436;-80
2023/07/14 10:11:50;;;;;;;4.03;3.70;;;30.40;99.90;;;;;;5098473;28;20195;-75
2023/07/14 10:14:35;;;;;;;3.17;2.93;;;30.50;99.90;;;;;;5097926;28;20543;-79
2023/07/14 10:17:01;;;;;;;3.83;3.53;;;30.50;99.80;;;;;;5097118;28;20481;-75
2023/07/14 10:19:43;;;;;;;3.80;3.40;;;30.60;99.90;;;;;;5097525;28;20423;-79
2023/07/14 10:22:19;;;;;;;6.23;3.37;;;30.60;99.50;;;;;;5090632;28;20692;-75
2023/07/14 10:24:46;;;;;;;3.63;3.40;;;30.60;99.90;;;;;;5091921;28;20519;-75
2023/07/14 10:27:18;;;;;;;4.23;3.93;;;30.70;99.40;;;;;;5093291;28;20460;-75
2023/07/14 10:29:57;;;;;;;3.43;3.13;;;30.70;99.90;;;;;;5093381;28;20676;-79
2023/07/14 10:32:29;;;;;;;3.47;3.27;;;30.80;99.90;;;;;;5102056;28;20454;-79
2023/07/14 10:35:05;;;;;;;3.97;3.40;;;30.80;98.50;;;;;;5104718;28;21069;-74
2023/07/14 10:37:37;;;;;;;4.03;3.63;;;30.90;99.50;;;;;;5103234;28;20579;-79
2023/07/14 10:40:11;;;;;;;3.60;3.30;;;30.90;98.70;;;;;;5101942;28;20961;-79
2023/07/14 10:42:44;;;;;;;3.90;3.60;;;31.00;98.80;;;;;;5104596;28;20479;-79
2023/07/14 10:45:14;;;;;;;3.63;3.13;;;31.00;97.30;;;;;;5091250;28;20951;-79
2023/07/14 10:47:48;;;;;;;6.13;4.10;;;31.00;96.60;;;;;;5092794;28;20452;-79
2023/07/14 10:50:52;;;;;;;3.90;3.60;;;31.10;96.50;;;;;;5087547;28;20434;-75
2023/07/14 10:53:48;;;;;;;4.00;3.60;;;31.10;96.10;;;;;;5090065;28;20863;-79
2023/07/14 10:56:25;;;;;;;3.60;3.30;;;31.20;96.50;;;;;;5094557;28;20830;-79
2023/07/14 10:58:55;;;;;;;3.50;3.20;;;31.20;96.80;;;;;;5089922;28;20452;-75
2023/07/14 11:01:39;;;;;;;4.47;3.23;;;31.20;98.70;;;;;;5085824;28;20441;-81
2023/07/14 11:04:07;;;;;;;3.53;3.20;;;31.10;99.40;;;;;;5095983;28;20721;-75
2023/07/14 11:06:35;;;;;;;3.30;3.10;;;31.00;99.50;;;;;;5094092;28;21179;-81
2023/07/14 11:09:02;;;;;;;3.30;3.10;;;31.00;97.40;;;;;;5090428;28;20508;-81
2023/07/14 11:11:45;;;;;;;5.33;3.27;;;30.90;99.50;;;;;;5087119;28;20501;-81
2023/07/14 11:14:20;;;;;;;3.30;3.10;;;30.80;99.80;;;;;;5087370;28;20807;-83
2023/07/14 11:17:07;;;;;;;3.33;3.00;;;30.90;97.90;;;;;;5090382;28;20447;-77
2023/07/14 11:19:55;;;;;;;3.83;2.97;;;31.00;99.10;;;;;;5091885;28;20578;-79
2023/07/14 11:22:21;;;;;;;3.50;3.20;;;31.00;98.20;;;;;;5082739;28;20458;-80
2023/07/14 11:25:09;;;;;;;3.53;3.23;;;30.90;99.00;;;;;;5091225;28;20778;-80
2023/07/14 11:27:53;;;;;;;3.73;3.33;;;30.80;99.90;;;;;;5088235;28;20198;-87
2023/07/14 11:30:29;;;;;;;3.00;2.80;;;30.90;99.40;;;;;;5095650;28;20426;-83
2023/07/14 11:33:19;;;;;;;3.40;3.10;;;31.00;94.70;;;;;;5088981;28;20700;-86
2023/07/14 11:35:58;;;;;;;4.20;2.80;;;31.10;93.90;;;;;;5094349;28;20436;-78
2023/07/14 11:38:49;;;;;;;4.07;3.67;;;31.10;95.80;;;;;;5093927;28;20480;-78
2023/07/14 11:41:18;;;;;;;2.87;2.67;;;31.10;98.70;;;;;;5086299;28;21153;-83
2023/07/14 11:43:44;;;;;;;3.20;3.00;;;31.10;98.50;;;;;;5086883;28;20800;-84
2023/07/14 11:46:16;;;;;;;4.40;3.63;;;31.20;95.50;;;;;;5093328;28;20425;-88
2023/07/14 11:48:58;;;;;;;4.03;3.73;;;31.20;97.90;;;;;;5091206;28;20459;-85
2023/07/14 11:51:55;;;;;;;3.57;3.37;;;31.10;98.80;;;;;;5088212;28;20517;-84
2023/07/14 11:54:41;;;;;;;4.07;3.10;;;31.20;97.80;;;;;;5086345;28;20467;-89
2023/07/14 11:57:17;;;;;;;3.27;3.00;;;31.10;99.70;;;;;;5088137;28;20458;-79
2023/07/14 12:00:14;;;;;;;4.07;3.77;;;31.10;99.40;;;;;;5090287;28;20412;-82
2023/07/14 12:02:48;;;;;;;3.10;2.90;;;31.20;99.30;;;;;;5092787;28;20924;-77
2023/07/14 12:05:13;;;;;;;3.80;3.57;;;31.10;99.10;;;;;;5084409;28;20424;-87
2023/07/14 12:08:05;;;;;;;2.90;2.70;;;31.20;93.90;;;;;;5090640;28;20477;-80
2023/07/14 12:10:42;;;;;;;4.07;2.97;;;31.40;92.50;;;;;;5086359;28;20180;-75
2023/07/14 12:13:32;;;;;;;3.43;3.23;;;31.50;92.30;;;;;;5084988;28;20491;-83
2023/07/14 12:15:57;;;;;;;2.87;2.67;;;31.60;92.00;;;;;;5083502;28;20759;-83
2023/07/14 12:18:34;;;;;;;3.17;2.87;;;31.70;92.70;;;;;;5083907;28;20539;-75
2023/07/14 12:21:15;;;;;;;4.50;3.27;;;31.70;92.00;;;;;;5084768;28;20180;-75
2023/07/14 12:23:43;;;;;;;6.37;3.70;;;31.80;90.80;;;;;;5087396;28;20539;-75
2023/07/14 12:26:14;;;;;;;2.97;2.77;;;31.90;90.30;;;;;;5089307;28;20424;-75
2023/07/14 12:28:41;;;;;;;2.70;2.50;;;31.80;92.20;;;;;;5091727;27;20445;-82
2023/07/14 12:31:16;;;;;;;3.13;2.90;;;31.80;91.90;;;;;;5086311;28;20533;-81
2023/07/14 12:33:42;;;;;;;4.03;3.53;;;31.80;95.10;;;;;;5088533;28;20480;-75
2023/07/14 12:36:15;;;;;;;5.00;3.10;;;31.80;90.20;;;;;;5095065;28;20420;-81
2023/07/14 12:38:47;;;;;;;3.37;3.07;;;31.90;90.10;;;;;;5094011;28;20802;-75
2023/07/14 12:41:14;;;;;;;3.50;3.30;;;31.90;93.60;;;;;;5095393;28;20421;-81
2023/07/14 12:43:48;;;;;;;3.00;2.80;;;31.90;92.60;;;;;;5094126;28;20472;-82
2023/07/14 12:46:25;;;;;;;2.93;2.73;;;31.90;94.50;;;;;;5100746;28;20460;-75
2023/07/14 12:49:02;;;;;;;3.43;3.13;;;32.00;91.20;;;;;;5089661;28;20456;-75
2023/07/14 12:51:29;;;;;;;3.53;3.23;;;32.00;93.80;;;;;;5088026;28;20941;-82
2023/07/14 12:54:12;;;;;;;3.70;3.50;;;32.00;94.00;;;;;;5091768;28;20472;-81
2023/07/14 12:56:38;;;;;;;3.10;2.90;;;32.00;94.60;;;;;;5098190;28;20801;-82
2023/07/14 12:59:10;;;;;;;3.50;3.23;;;32.00;95.20;;;;;;5100090;28;20512;-75
2023/07/14 13:01:39;;;;;;;3.70;3.40;;;32.10;90.00;;;;;;5096693;28;20477;-75